Time;durP1;ratioP1;P1;durP2;ratioP2;P2;SDS_P1;SDS_P2;PMS_P1;PMS_P2;Temp;Humidity;BMP_temperature;BMP_pressure;BME280_temperature;BME280_humidity;BME280_pressure;Samples;Min_cycle;Max_cycle;Signal;HPM_P1;HPM_P2
2022/05/18 00:03:56;;;;;;;4.60;2.90;;;;;;;9.54;52.40;99382.38;220505;1274;22705;-71
2022/05/18 00:08:59;;;;;;;4.80;2.60;;;;;;;9.43;52.63;99387.13;220082;1277;244274;-71
2022/05/18 00:14:01;;;;;;;7.40;2.70;;;;;;;9.33;52.72;99389.67;220334;1276;22643;-70
2022/05/18 00:19:03;;;;;;;5.90;3.00;;;;;;;9.24;52.91;99385.55;220362;1276;22588;-71
2022/05/18 00:24:06;;;;;;;4.90;3.00;;;;;;;9.15;53.08;99388.41;220481;1278;22700;-72
2022/05/18 00:29:09;;;;;;;6.40;3.10;;;;;;;9.05;53.23;99386.35;220429;1275;22596;-71
2022/05/18 00:34:14;;;;;;;4.40;2.40;;;;;;;8.96;53.38;99393.75;220377;1275;22585;-72
2022/05/18 00:39:21;;;;;;;8.40;3.30;;;;;;;8.86;53.47;99393.19;221081;1275;22569;-72
2022/05/18 00:44:24;;;;;;;6.90;3.70;;;;;;;8.77;53.59;99402.17;220881;1275;22556;-72
2022/05/18 00:49:26;;;;;;;5.00;3.60;;;;;;;8.65;53.63;99408.64;220294;1277;25427;-72
2022/05/18 00:54:36;;;;;;;5.90;3.70;;;;;;;8.55;54.01;99417.99;220358;1277;23009;-72
2022/05/18 00:59:55;;;;;;;8.10;3.50;;;;;;;8.50;54.23;99425.77;220473;1276;23087;-72
2022/05/18 01:05:30;;;;;;;5.00;3.40;;;;;;;8.46;54.28;99434.00;220342;1277;22630;-72
2022/05/18 01:10:38;;;;;;;8.40;3.90;;;;;;;8.39;54.38;99435.33;220477;1274;25391;-71
2022/05/18 01:15:43;;;;;;;6.10;3.50;;;;;;;8.29;54.53;99438.09;220529;1274;24329;-72
2022/05/18 01:20:46;;;;;;;9.80;3.70;;;;;;;8.19;54.65;99445.23;220326;1278;24219;-71
2022/05/18 01:26:06;;;;;;;8.40;3.70;;;;;;;8.09;54.84;99453.38;220357;1278;24254;-72
2022/05/18 01:31:12;;;;;;;7.90;4.50;;;;;;;8.01;55.18;99461.48;220423;1274;24357;-71
2022/05/18 01:36:25;;;;;;;7.10;4.20;;;;;;;7.94;55.23;99465.15;220511;1275;24322;-71
2022/05/18 01:42:17;;;;;;;6.30;3.10;;;;;;;7.85;55.14;99470.41;220313;1277;25416;-72
2022/05/18 01:47:31;;;;;;;5.20;2.40;;;;;;;7.77;54.85;99482.67;220483;1277;22542;-72
2022/05/18 01:52:43;;;;;;;2.80;1.70;;;;;;;7.71;54.60;99483.55;220674;1275;22604;-72
2022/05/18 01:57:45;;;;;;;3.20;1.90;;;;;;;7.61;54.48;99484.58;220400;1274;25305;-73
2022/05/18 02:02:48;;;;;;;2.90;1.30;;;;;;;7.51;54.35;99489.96;220321;1274;23032;-71
2022/05/18 02:07:50;;;;;;;5.80;1.50;;;;;;;7.39;54.33;99498.20;220306;1274;22641;-71
2022/05/18 02:13:13;;;;;;;3.00;1.20;;;;;;;7.28;54.15;99501.91;220789;1275;24261;-72
2022/05/18 02:19:01;;;;;;;2.80;1.20;;;;;;;7.19;53.96;99509.98;220406;1274;22563;-71
2022/05/18 02:24:04;;;;;;;4.40;1.40;;;;;;;7.10;54.06;99517.90;220511;1274;25290;-71
2022/05/18 02:29:18;;;;;;;6.50;1.60;;;;;;;6.99;54.29;99522.19;220522;1277;22567;-72
2022/05/18 02:34:23;;;;;;;3.20;1.50;;;;;;;6.93;54.47;99536.11;220388;1278;22629;-72
2022/05/18 02:39:26;;;;;;;3.40;1.60;;;;;;;6.89;54.19;99548.36;220385;1274;22597;-71
2022/05/18 02:44:38;;;;;;;2.20;1.20;;;;;;;6.86;54.32;99560.79;220550;1274;22593;-71
2022/05/18 02:49:48;;;;;;;3.30;1.30;;;;;;;6.82;54.72;99568.55;220498;1277;25478;-72
2022/05/18 03:00:13;;;;;;;2.80;1.20;;;;;;;6.64;54.77;99581.43;220454;1277;22562;-72
2022/05/18 03:05:24;;;;;;;2.10;1.30;;;;;;;6.54;54.68;99585.98;220876;1274;22613;-72
2022/05/18 03:10:26;;;;;;;1.80;1.40;;;;;;;6.43;54.77;99591.16;220515;1275;22657;-72
2022/05/18 03:15:47;;;;;;;3.30;1.30;;;;;;;6.30;55.08;99604.08;220666;1274;22728;-71
2022/05/18 03:26:18;;;;;;;1.70;1.20;;;;;;;6.16;55.34;99617.90;220462;1274;22559;-72
2022/05/18 03:31:22;;;;;;;2.80;1.30;;;;;;;6.40;55.45;99625.98;220386;1278;22554;-72
2022/05/18 03:36:27;;;;;;;2.70;1.50;;;;;;;6.87;55.26;99634.99;220520;1275;24396;-72
2022/05/18 03:41:35;;;;;;;2.70;1.30;;;;;;;7.38;54.51;99645.27;220369;1275;22542;-71
2022/05/18 03:46:38;;;;;;;2.80;1.70;;;;;;;7.87;53.91;99648.25;221105;1275;22587;-72
2022/05/18 03:51:40;;;;;;;7.90;1.90;;;;;;;8.29;53.62;99654.80;220469;1274;22538;-73
2022/05/18 03:56:46;;;;;;;3.00;1.70;;;;;;;8.56;52.70;99657.91;220633;1274;22653;-72
2022/05/18 04:02:02;;;;;;;2.40;2.00;;;;;;;8.59;52.07;99660.14;220483;1275;22538;-72
2022/05/18 04:07:05;;;;;;;2.20;1.50;;;;;;;8.46;51.95;99661.02;220483;1276;22591;-72
2022/05/18 04:12:11;;;;;;;6.00;1.90;;;;;;;8.21;51.78;99666.79;220260;1276;22697;-72
2022/05/18 04:17:15;;;;;;;3.90;1.80;;;;;;;7.97;52.07;99673.30;220573;1275;22569;-71
2022/05/18 04:22:43;;;;;;;3.50;2.00;;;;;;;7.79;52.30;99682.02;220431;1274;22758;-70
2022/05/18 04:27:56;;;;;;;2.90;2.00;;;;;;;7.66;52.74;99689.54;220421;1275;23165;-71
2022/05/18 04:33:12;;;;;;;4.80;1.90;;;;;;;7.61;53.02;99689.42;221430;1274;24379;-72
2022/05/18 04:38:21;;;;;;;4.30;2.20;;;;;;;7.63;53.05;99692.81;220542;1274;25267;-72
2022/05/18 04:43:50;;;;;;;3.90;2.50;;;;;;;7.70;53.37;99692.10;220884;1274;25365;-72
2022/05/18 04:48:52;;;;;;;4.10;2.20;;;;;;;7.83;53.69;99696.86;220319;1275;22585;-72
2022/05/18 04:54:15;;;;;;;4.60;2.10;;;;;;;7.95;53.71;99704.91;220469;1274;22577;-72
2022/05/18 04:59:36;;;;;;;6.60;1.90;;;;;;;8.08;53.39;99713.52;220453;1276;22573;-72
2022/05/18 05:04:41;;;;;;;4.90;2.00;;;;;;;8.19;53.06;99724.57;220585;1275;22668;-72
2022/05/18 05:09:46;;;;;;;3.60;1.70;;;;;;;8.31;52.89;99729.08;220620;1275;22537;-72
2022/05/18 05:14:51;;;;;;;2.60;1.30;;;;;;;8.40;52.59;99731.80;220416;1274;22585;-72
2022/05/18 05:19:57;;;;;;;4.80;1.90;;;;;;;8.53;52.28;99741.58;220600;1275;22557;-71
2022/05/18 05:25:00;;;;;;;5.10;1.80;;;;;;;8.68;52.14;99740.63;220804;1274;23134;-71
2022/05/18 05:30:16;;;;;;;3.30;1.80;;;;;;;8.82;52.04;99744.86;220510;1275;24295;-72
2022/05/18 05:35:36;;;;;;;4.70;1.30;;;;;;;9.01;51.58;99751.30;220944;1274;22619;-74
2022/05/18 05:40:51;;;;;;;2.40;1.30;;;;;;;9.15;50.61;99761.15;220764;1276;22816;-72
2022/05/18 05:45:59;;;;;;;3.10;1.30;;;;;;;9.31;50.32;99769.89;220921;1275;22577;-73
2022/05/18 05:51:03;;;;;;;3.60;1.60;;;;;;;9.54;50.10;99771.87;221446;1274;23032;-74
2022/05/18 05:56:07;;;;;;;6.10;1.70;;;;;;;9.70;49.66;99781.30;221683;1273;25345;-73
2022/05/18 06:01:13;;;;;;;3.60;1.90;;;;;;;9.81;49.59;99785.17;221219;1274;23196;-73
2022/05/18 06:06:19;;;;;;;5.30;1.70;;;;;;;9.96;49.64;99789.64;220963;1274;25545;-73
2022/05/18 06:11:26;;;;;;;3.30;1.70;;;;;;;10.07;48.70;99799.13;221067;1274;25602;-73
2022/05/18 06:16:28;;;;;;;3.00;1.50;;;;;;;10.17;49.00;99799.28;221172;1274;22550;-71
2022/05/18 06:21:31;;;;;;;4.90;1.80;;;;;;;10.33;48.71;99807.04;221061;1274;22712;-72
2022/05/18 06:26:36;;;;;;;2.70;1.50;;;;;;;10.47;48.13;99813.16;220747;1274;22665;-74
2022/05/18 06:31:39;;;;;;;6.50;1.40;;;;;;;10.62;47.58;99817.66;220575;1275;22577;-72
2022/05/18 06:36:42;;;;;;;3.20;1.40;;;;;;;10.69;47.23;99824.45;221760;1274;22559;-73
2022/05/18 06:41:48;;;;;;;3.50;1.50;;;;;;;10.82;47.04;99827.16;220769;1274;22575;-73
2022/05/18 06:46:50;;;;;;;1.70;1.20;;;;;;;10.96;46.90;99838.92;220783;1274;26515;-72
2022/05/18 06:51:56;;;;;;;7.60;1.70;;;;;;;11.13;47.05;99848.04;220875;1273;22781;-73
2022/05/18 06:56:58;;;;;;;3.10;1.70;;;;;;;11.37;46.81;99852.09;220884;1274;22563;-73
2022/05/18 07:02:01;;;;;;;3.50;2.40;;;;;;;11.64;46.69;99859.83;221180;1273;23698;-73
2022/05/18 07:07:13;;;;;;;7.50;1.60;;;;;;;11.85;46.31;99861.86;220952;1274;22539;-73
2022/05/18 07:12:15;;;;;;;2.80;1.30;;;;;;;12.07;46.09;99873.94;220703;1274;25421;-72
2022/05/18 07:18:01;;;;;;;;;;;;;;;;;;;;;
2022/05/18 07:23:52;;;;;;;3.00;1.80;;;;;;;12.35;44.54;99881.90;223921;1274;22574;-72
2022/05/18 07:28:59;;;;;;;3.10;1.30;;;;;;;12.53;44.30;99885.02;223138;1274;22541;-73
2022/05/18 07:34:01;;;;;;;7.90;2.00;;;;;;;12.84;44.15;99884.58;220997;1275;22658;-73
2022/05/18 07:39:03;;;;;;;3.40;1.80;;;;;;;13.07;43.02;99884.62;220988;1274;22570;-73
2022/05/18 07:44:15;;;;;;;5.20;2.10;;;;;;;13.17;42.58;99884.13;220725;1276;22596;-72
2022/05/18 07:49:18;;;;;;;5.80;1.80;;;;;;;13.25;42.15;99891.30;221743;1274;22564;-72
2022/05/18 07:54:20;;;;;;;3.70;2.60;;;;;;;13.39;42.04;99882.02;221078;1274;23053;-73
2022/05/18 07:59:22;;;;;;;3.10;1.70;;;;;;;13.58;41.94;99884.42;220758;1274;22698;-72
2022/05/18 08:04:25;;;;;;;3.90;1.90;;;;;;;13.80;41.22;99889.42;220840;1274;22587;-70
2022/05/18 08:09:28;;;;;;;4.10;1.80;;;;;;;14.01;40.91;99894.52;220789;1274;26308;-70
2022/05/18 08:19:51;;;;;;;4.70;1.60;;;;;;;14.41;39.46;99896.82;220934;1274;22557;-71
2022/05/18 08:24:53;;;;;;;3.30;1.50;;;;;;;14.51;39.38;99898.33;220808;1274;24269;-71
2022/05/18 08:30:07;;;;;;;4.70;1.70;;;;;;;14.72;39.06;99902.86;220769;1274;25478;-71
2022/05/18 08:35:10;;;;;;;5.50;1.80;;;;;;;14.91;38.52;99906.10;221635;1274;22547;-70
2022/05/18 08:40:46;;;;;;;2.70;1.60;;;;;;;15.02;37.96;99911.89;222758;1274;22622;-70
2022/05/18 08:45:59;;;;;;;4.20;1.60;;;;;;;15.13;36.49;99908.77;220808;1274;25479;-70
2022/05/18 08:51:12;;;;;;;5.40;2.10;;;;;;;15.15;35.82;99901.77;220798;1274;23007;-71
2022/05/18 08:56:40;;;;;;;2.60;1.50;;;;;;;15.28;35.32;99900.94;220985;1274;22619;-71
2022/05/18 09:01:50;;;;;;;1.50;1.30;;;;;;;15.35;34.66;99902.52;220801;1274;22721;-71
2022/05/18 09:07:19;;;;;;;6.10;1.20;;;;;;;15.39;34.16;99898.73;221079;1273;22604;-71
2022/05/18 09:12:44;;;;;;;3.20;1.40;;;;;;;15.49;33.69;99892.15;221086;1274;22792;-70
2022/05/18 09:18:01;;;;;;;3.70;1.90;;;;;;;15.70;33.48;99890.31;220925;1275;22581;-69
2022/05/18 09:23:33;;;;;;;1.50;1.00;;;;;;;15.89;32.88;99893.17;218341;1276;23477;-70
2022/05/18 09:29:03;;;;;;;2.70;1.30;;;;;;;15.92;31.74;99888.80;218860;1274;22547;-70
2022/05/18 09:34:22;;;;;;;1.10;0.90;;;;;;;15.91;31.55;99890.94;226053;1274;23081;-70
2022/05/18 09:39:29;;;;;;;1.10;1.00;;;;;;;16.08;31.72;99888.48;219599;1274;24266;-70
2022/05/18 09:44:50;;;;;;;1.10;0.90;;;;;;;16.30;31.57;99886.30;218778;1275;25518;-70
2022/05/18 09:50:45;;;;;;;2.40;1.00;;;;;;;16.48;31.22;99884.27;218860;1274;22545;-70
2022/05/18 09:55:50;;;;;;;3.00;1.00;;;;;;;16.59;31.34;99887.53;219150;1274;22791;-70
2022/05/18 10:07:27;;;;;;;2.10;0.90;;;;;;;16.79;30.65;99890.13;218637;1276;24290;-69
2022/05/18 10:11:44;;;;;;;;;;;;;;;17.10;29.87;99892.05;218490;1274;24039;-71
2022/05/18 10:17:09;;;;;;;5.80;2.60;;;;;;;17.28;30.00;99890.20;218492;1276;22750;-70
2022/05/18 10:22:19;;;;;;;2.40;1.00;;;;;;;17.50;29.63;99890.67;221408;1275;22602;-70
2022/05/18 10:27:28;;;;;;;3.10;1.00;;;;;;;17.57;28.78;99891.03;223581;1276;22591;-70
2022/05/18 10:32:32;;;;;;;3.10;1.10;;;;;;;17.56;28.70;99887.10;220534;1275;22566;-69
2022/05/18 10:37:38;;;;;;;1.50;0.70;;;;;;;17.66;28.39;99879.73;221019;1275;22629;-70
2022/05/18 10:42:55;;;;;;;2.40;0.70;;;;;;;17.79;28.42;99882.96;219552;1274;22573;-70
2022/05/18 10:48:20;;;;;;;1.70;0.60;;;;;;;17.95;27.98;99887.48;221060;1273;22542;-71
2022/05/18 10:53:38;;;;;;;1.80;1.40;;;;;;;17.94;27.13;99883.33;221097;1274;22562;-71
2022/05/18 10:59:08;;;;;;;3.90;0.90;;;;;;;17.74;26.87;99875.89;221038;1274;24926;-72
2022/05/18 11:04:29;;;;;;;0.50;0.50;;;;;;;17.86;27.60;99874.95;221078;1274;24272;-73
2022/05/18 11:09:33;;;;;;;1.50;0.70;;;;;;;18.08;26.73;99869.26;220951;1275;24269;-72
2022/05/18 11:14:50;;;;;;;2.10;1.00;;;;;;;18.22;26.64;99868.45;220883;1275;22544;-73
2022/05/18 11:20:15;;;;;;;1.20;0.70;;;;;;;18.52;26.78;99857.22;220795;1275;22560;-71
2022/05/18 11:25:57;;;;;;;1.30;0.70;;;;;;;18.86;26.76;99858.91;220888;1274;22563;-72
2022/05/18 11:31:41;;;;;;;0.80;0.60;;;;;;;19.20;26.93;99854.95;220896;1273;22705;-72
2022/05/18 11:37:14;;;;;;;1.70;0.80;;;;;;;19.22;25.72;99855.55;220913;1274;25344;-71
2022/05/18 11:42:42;;;;;;;2.20;1.30;;;;;;;19.03;25.75;99852.10;221282;1274;22573;-73
2022/05/18 11:48:29;;;;;;;1.60;1.40;;;;;;;19.18;26.05;99846.80;221099;1276;24212;-72
2022/05/18 11:53:57;;;;;;;1.00;0.70;;;;;;;19.27;25.21;99844.41;220025;1281;22856;-72
2022/05/18 12:00:08;;;;;;;1.30;0.70;;;;;;;19.27;25.44;99844.14;214842;1307;543758;-71
2022/05/18 12:05:51;;;;;;;1.60;0.80;;;;;;;19.28;25.09;99842.89;219313;1282;24279;-70
2022/05/18 12:11:05;;;;;;;2.70;1.70;;;;;;;19.31;24.99;99843.86;218956;1281;180399;-70
2022/05/18 12:16:28;;;;;;;1.10;1.00;;;;;;;19.13;24.49;99839.80;220193;1281;22633;-70
2022/05/18 12:21:56;;;;;;;1.50;0.80;;;;;;;19.00;24.94;99840.31;220265;1281;25411;-70
2022/05/18 12:27:12;;;;;;;4.40;1.00;;;;;;;18.97;24.82;99839.89;220225;1280;26362;-70
2022/05/18 12:32:18;;;;;;;2.70;0.90;;;;;;;18.83;24.12;99837.16;219979;1282;24290;-72
2022/05/18 12:37:50;;;;;;;3.60;0.90;;;;;;;18.90;24.87;99830.49;220195;1281;22884;-71
2022/05/18 12:43:34;;;;;;;1.50;0.70;;;;;;;19.06;24.87;99827.21;220265;1280;24166;-72
2022/05/18 12:48:52;;;;;;;1.90;1.20;;;;;;;19.18;24.82;99820.91;220316;1281;26406;-72
2022/05/18 12:54:09;;;;;;;1.00;0.70;;;;;;;19.27;24.79;99824.05;220375;1281;27132;-71
2022/05/18 12:59:41;;;;;;;3.00;0.60;;;;;;;19.31;24.60;99819.64;220305;1280;26464;-72
2022/05/18 13:04:46;;;;;;;1.00;0.70;;;;;;;19.32;24.62;99816.44;220572;1276;22694;-73
2022/05/18 13:10:31;;;;;;;1.70;1.10;;;;;;;19.26;24.41;99810.12;220626;1275;22537;-71
2022/05/18 13:16:00;;;;;;;1.50;0.70;;;;;;;19.23;24.68;99809.55;220740;1275;22572;-72
2022/05/18 13:21:09;;;;;;;2.90;0.90;;;;;;;19.30;24.61;99810.36;223410;1274;22563;-71
2022/05/18 13:26:47;;;;;;;6.60;0.80;;;;;;;19.35;24.44;99804.06;220418;1276;22581;-71
2022/05/18 13:31:54;;;;;;;1.30;0.70;;;;;;;19.46;24.65;99800.79;220578;1276;25266;-71
2022/05/18 13:36:59;;;;;;;1.50;1.00;;;;;;;19.55;24.25;99795.85;221397;1276;24362;-71
2022/05/18 13:42:22;;;;;;;1.90;1.20;;;;;;;19.58;24.24;99787.42;221197;1276;22549;-70
2022/05/18 13:47:47;;;;;;;2.90;1.60;;;;;;;19.59;24.26;99785.77;222273;1276;22641;-71
2022/05/18 13:53:03;;;;;;;2.60;1.10;;;;;;;19.68;24.66;99780.35;220607;1276;22564;-71
2022/05/18 13:58:23;;;;;;;5.90;3.40;;;;;;;19.83;24.44;99780.78;220624;1276;23446;-69
2022/05/18 14:03:32;;;;;;;1.60;1.00;;;;;;;19.95;24.59;99778.69;218846;1277;25307;-70
2022/05/18 14:08:38;;;;;;;1.80;0.90;;;;;;;19.96;24.01;99776.71;219003;1276;22782;-70
2022/05/18 14:13:52;;;;;;;3.90;1.10;;;;;;;19.84;23.84;99772.51;219262;1276;25486;-71
2022/05/18 14:19:04;;;;;;;1.80;0.80;;;;;;;19.84;24.01;99768.63;220390;1276;22647;-69
2022/05/18 14:24:20;;;;;;;1.80;1.00;;;;;;;19.88;23.92;99764.84;218970;1277;23068;-70
2022/05/18 14:29:42;;;;;;;2.40;1.10;;;;;;;19.95;23.93;99766.52;220961;1276;25488;-70
2022/05/18 14:34:53;;;;;;;1.90;1.20;;;;;;;19.98;23.73;99763.01;219688;1276;24174;-69
2022/05/18 14:40:00;;;;;;;2.60;1.10;;;;;;;19.96;24.03;99763.61;220327;1270;24221;-69
2022/05/18 14:45:12;;;;;;;3.80;1.00;;;;;;;20.02;23.88;99759.69;221337;1270;22579;-70
2022/05/18 14:50:50;;;;;;;2.40;1.10;;;;;;;20.03;23.69;99761.38;221759;1270;22601;-71
2022/05/18 14:55:57;;;;;;;1.20;0.80;;;;;;;19.96;23.77;99763.37;221664;1270;23042;-71
2022/05/18 15:01:05;;;;;;;1.30;1.20;;;;;;;20.03;24.04;99759.45;221414;1270;24342;-71
2022/05/18 15:06:15;;;;;;;1.80;0.90;;;;;;;20.17;23.93;99762.48;221231;1268;22936;-70
2022/05/18 15:11:33;;;;;;;1.90;0.80;;;;;;;20.31;23.89;99757.52;221914;1268;22605;-73
2022/05/18 15:16:45;;;;;;;3.20;1.20;;;;;;;20.27;23.67;99749.98;221533;1269;22623;-70
2022/05/18 15:22:29;;;;;;;2.10;1.00;;;;;;;20.23;24.06;99750.75;221810;1268;22547;-70
2022/05/18 15:27:36;;;;;;;4.00;1.10;;;;;;;20.21;24.10;99745.31;221382;1270;24319;-70
2022/05/18 15:32:47;;;;;;;2.30;0.90;;;;;;;20.15;23.85;99737.92;221831;1270;23156;-70
2022/05/18 15:37:53;;;;;;;2.40;0.90;;;;;;;20.21;23.83;99741.80;221524;1270;22562;-70
2022/05/18 15:43:09;;;;;;;2.30;1.20;;;;;;;20.16;23.62;99738.59;221326;1270;23366;-70
2022/05/18 15:48:25;;;;;;;1.50;0.90;;;;;;;20.14;23.70;99736.46;221439;1268;24500;-71
2022/05/18 15:53:45;;;;;;;2.70;1.80;;;;;;;20.13;23.80;99734.42;221610;1268;22864;-70
2022/05/18 15:58:48;;;;;;;3.80;2.40;;;;;;;20.10;23.74;99739.14;222089;1270;25590;-69
2022/05/18 16:03:51;;;;;;;1.80;1.00;;;;;;;20.08;23.73;99734.45;220073;1270;25467;-70
2022/05/18 16:08:58;;;;;;;0.90;0.70;;;;;;;20.07;23.38;99740.30;219842;1270;25821;-71
2022/05/18 16:14:01;;;;;;;1.80;0.90;;;;;;;20.02;22.92;99739.73;221563;1268;25291;-69
2022/05/18 16:19:13;;;;;;;0.90;0.70;;;;;;;19.95;23.51;99736.05;220487;1268;22627;-70
2022/05/18 16:24:24;;;;;;;1.20;0.80;;;;;;;19.88;23.28;99733.81;220547;1266;22664;-70
2022/05/18 16:29:33;;;;;;;1.30;1.00;;;;;;;19.76;23.25;99728.60;221367;1270;22556;-70
2022/05/18 16:34:36;;;;;;;2.10;0.80;;;;;;;19.74;23.73;99726.84;221300;1270;22857;-70
2022/05/18 16:39:45;;;;;;;1.30;0.70;;;;;;;19.74;23.66;99727.41;221449;1270;24238;-70
2022/05/18 16:44:52;;;;;;;0.90;0.60;;;;;;;19.75;23.60;99723.35;221475;1270;22521;-70
2022/05/18 16:49:54;;;;;;;3.00;1.00;;;;;;;19.71;23.66;99721.61;221398;1268;22708;-70
2022/05/18 16:54:57;;;;;;;1.00;0.70;;;;;;;19.56;23.18;99723.33;221490;1268;22574;-70
2022/05/18 16:59:59;;;;;;;1.10;1.00;;;;;;;19.35;23.68;99724.73;221635;1268;25367;-69
2022/05/18 17:10:23;;;;;;;1.60;0.70;;;;;;;19.16;24.18;99726.80;221594;1270;22591;-69
2022/05/18 17:15:26;;;;;;;1.00;0.80;;;;;;;19.20;24.06;99728.13;219681;1270;22634;-69
2022/05/18 17:20:28;;;;;;;1.70;1.20;;;;;;;20.57;24.75;99728.43;220146;1270;25027;-70
2022/05/18 17:25:31;;;;;;;3.90;1.00;;;;;;;22.85;24.45;99725.47;221686;1270;22569;-69
2022/05/18 17:30:40;;;;;;;3.10;1.50;;;;;;;24.76;23.41;99726.65;219867;1270;22562;-70
2022/05/18 17:35:48;;;;;;;3.00;1.70;;;;;;;24.65;22.02;99721.98;220673;1270;26477;-70
2022/05/18 17:41:11;;;;;;;5.40;3.30;;;;;;;23.51;21.84;99717.73;220527;1270;24142;-69
2022/05/18 17:46:15;;;;;;;2.80;1.40;;;;;;;22.03;22.16;99718.01;219725;1271;23383;-70
2022/05/18 17:51:38;;;;;;;3.40;1.20;;;;;;;20.67;22.48;99722.92;221032;1272;22595;-70
2022/05/18 17:56:42;;;;;;;2.50;1.30;;;;;;;19.67;23.34;99721.19;219677;1271;22552;-70
2022/05/18 18:01:59;;;;;;;3.00;1.00;;;;;;;19.02;24.87;99722.08;221171;1271;22711;-69
2022/05/18 18:07:04;;;;;;;1.60;1.20;;;;;;;18.45;25.37;99723.44;221170;1271;22545;-70
2022/05/18 18:12:07;;;;;;;2.50;1.20;;;;;;;17.95;25.86;99720.39;221486;1271;22549;-70
2022/05/18 18:17:14;;;;;;;1.80;0.80;;;;;;;17.53;26.52;99720.92;221126;1272;25365;-69
2022/05/18 18:22:20;;;;;;;6.00;1.00;;;;;;;17.15;27.37;99724.47;219345;1271;24261;-70
2022/05/18 18:27:38;;;;;;;2.20;1.00;;;;;;;16.77;27.58;99727.14;220325;1270;22485;-69
2022/05/18 18:33:02;;;;;;;3.40;2.10;;;;;;;16.38;28.11;99730.71;221189;1272;22587;-69
2022/05/18 18:38:09;;;;;;;5.20;1.70;;;;;;;16.01;28.52;99736.44;219482;1271;22552;-70
2022/05/18 18:43:18;;;;;;;5.10;1.50;;;;;;;15.65;29.21;99742.02;220556;1270;22690;-70
2022/05/18 18:48:20;;;;;;;3.20;1.20;;;;;;;15.30;29.36;99742.09;221577;1271;24378;-69
2022/05/18 18:58:46;;;;;;;4.40;2.30;;;;;;;14.63;30.70;99749.90;221262;1270;22551;-70
2022/05/18 19:03:49;;;;;;;4.40;2.60;;;;;;;14.31;31.23;99751.98;220284;1272;22964;-69
2022/05/18 19:08:52;;;;;;;7.70;5.20;;;;;;;14.01;31.85;99752.81;219525;1272;22521;-70
2022/05/18 19:13:59;;;;;;;7.00;4.20;;;;;;;13.72;32.53;99756.85;220116;1271;22560;-70
2022/05/18 19:19:06;;;;;;;5.50;2.40;;;;;;;13.45;33.80;99761.52;220868;1272;24221;-71
2022/05/18 19:24:17;;;;;;;13.10;5.10;;;;;;;13.20;34.47;99764.33;221306;1271;22951;-69
2022/05/18 19:29:25;;;;;;;7.20;3.00;;;;;;;12.99;34.70;99759.48;220162;1272;24257;-70
2022/05/18 19:34:27;;;;;;;8.10;2.50;;;;;;;12.81;35.25;99759.88;219211;1271;25386;-70
2022/05/18 19:39:31;;;;;;;5.10;2.10;;;;;;;12.65;36.19;99764.29;219522;1271;22616;-70
2022/05/18 19:44:40;;;;;;;11.90;2.10;;;;;;;12.47;36.73;99762.45;219575;1272;22572;-69
2022/05/18 19:49:48;;;;;;;5.10;1.90;;;;;;;12.28;37.02;99763.12;220042;1272;22703;-70
2022/05/18 19:54:54;;;;;;;9.20;2.90;;;;;;;12.08;37.95;99758.02;221439;1271;22460;-70
2022/05/18 19:59:58;;;;;;;7.40;2.80;;;;;;;11.90;38.27;99757.91;221398;1271;22583;-69
2022/05/18 20:05:04;;;;;;;9.70;2.60;;;;;;;11.70;38.60;99758.43;219528;1271;22557;-68
2022/05/18 20:10:07;;;;;;;8.40;3.30;;;;;;;11.52;38.89;99759.27;220518;1271;22540;-70
2022/05/18 20:15:18;;;;;;;5.80;2.70;;;;;;;11.35;39.51;99761.63;220111;1272;25562;-70
2022/05/18 20:20:36;;;;;;;8.10;3.20;;;;;;;11.19;40.20;99759.70;220002;1271;22634;-70
2022/05/18 20:25:43;;;;;;;;;;;;;;;11.03;40.80;99762.86;219604;1271;22550;-69
2022/05/18 20:30:48;;;;;;;6.90;3.40;;;;;;;10.86;41.39;99771.30;219385;1271;22818;-69
2022/05/18 20:35:51;;;;;;;6.10;3.00;;;;;;;10.72;42.09;99771.60;219544;1271;24148;-69
2022/05/18 20:40:55;;;;;;;7.30;3.70;;;;;;;10.58;42.30;99771.57;219274;1271;25482;-69
2022/05/18 20:46:03;;;;;;;9.10;4.40;;;;;;;10.47;42.76;99769.02;219362;1271;25365;-69
2022/05/18 20:51:06;;;;;;;11.30;5.80;;;;;;;10.41;43.92;99773.22;221203;1271;23192;-69
2022/05/18 20:56:17;;;;;;;10.70;5.60;;;;;;;10.38;44.34;99768.30;219414;1271;24060;-70
2022/05/18 21:01:37;;;;;;;12.30;6.40;;;;;;;10.34;44.53;99767.63;219591;1271;22824;-70
2022/05/18 21:07:08;;;;;;;14.00;6.40;;;;;;;10.25;44.60;99767.13;219501;1271;24202;-70
2022/05/18 21:12:11;;;;;;;10.20;6.00;;;;;;;10.13;44.68;99764.09;219826;1271;27399;-69
2022/05/18 21:17:20;;;;;;;12.20;6.30;;;;;;;10.02;45.10;99763.66;219674;1271;23076;-69
2022/05/18 21:22:22;;;;;;;9.70;5.70;;;;;;;9.91;45.71;99764.19;219517;1272;22541;-69
2022/05/18 21:27:29;;;;;;;9.10;5.40;;;;;;;9.81;45.87;99763.05;219446;1271;22568;-70
2022/05/18 21:32:38;;;;;;;12.50;6.00;;;;;;;9.69;46.19;99760.69;219502;1271;24211;-70
2022/05/18 21:37:47;;;;;;;11.90;7.30;;;;;;;9.59;46.33;99764.20;220276;1271;25313;-69
2022/05/18 21:42:52;;;;;;;13.20;7.90;;;;;;;9.49;46.36;99764.23;219836;1271;24255;-69
2022/05/18 21:48:00;;;;;;;10.70;6.80;;;;;;;9.39;46.87;99763.00;220091;1271;22818;-69
2022/05/18 21:53:02;;;;;;;14.50;7.70;;;;;;;9.31;47.16;99762.51;219671;1271;25321;-69
2022/05/18 21:58:10;;;;;;;13.60;7.70;;;;;;;9.22;47.32;99757.73;221276;1271;22618;-70
2022/05/18 22:03:18;;;;;;;12.10;7.50;;;;;;;9.13;47.48;99755.68;219436;1271;24374;-69
2022/05/18 22:08:26;;;;;;;14.20;7.60;;;;;;;9.06;47.70;99753.70;219990;1272;22703;-70
2022/05/18 22:13:31;;;;;;;12.80;7.80;;;;;;;8.99;47.99;99756.35;219545;1271;26530;-69
2022/05/18 22:18:39;;;;;;;13.30;6.80;;;;;;;8.89;48.12;99760.42;219679;1271;24373;-70
2022/05/18 22:23:41;;;;;;;15.60;6.80;;;;;;;8.78;49.10;99758.09;219592;1271;24378;-69
2022/05/18 22:28:44;;;;;;;11.80;6.90;;;;;;;8.66;49.46;99752.79;219394;1271;22579;-70
2022/05/18 22:33:46;;;;;;;13.00;7.00;;;;;;;8.55;49.61;99749.77;219756;1271;25523;-70
2022/05/18 22:38:49;;;;;;;11.70;7.00;;;;;;;8.42;49.67;99746.84;220363;1271;25352;-69
2022/05/18 22:43:54;;;;;;;12.30;7.60;;;;;;;8.31;50.59;99747.40;219898;1271;22535;-67
2022/05/18 22:48:59;;;;;;;15.50;8.30;;;;;;;8.19;50.86;99743.46;219978;1271;22539;-69
2022/05/18 22:54:09;;;;;;;13.90;8.80;;;;;;;8.06;50.87;99744.16;219798;1271;25401;-67
2022/05/18 22:59:11;;;;;;;24.60;10.00;;;;;;;7.91;51.36;99741.63;221054;1272;22571;-70
2022/05/18 23:04:21;;;;;;;18.30;8.60;;;;;;;7.77;51.44;99737.81;219562;1271;22557;-70
2022/05/18 23:09:24;;;;;;;18.30;8.00;;;;;;;7.64;52.05;99741.14;220416;1272;23176;-69
2022/05/18 23:14:32;;;;;;;13.20;7.00;;;;;;;7.52;52.26;99740.39;219551;1271;22584;-70
2022/05/18 23:19:35;;;;;;;16.50;6.80;;;;;;;7.40;52.30;99736.30;219488;1271;22556;-69
2022/05/18 23:24:37;;;;;;;16.50;6.90;;;;;;;7.26;52.46;99742.30;219535;1271;22539;-69
2022/05/18 23:29:40;;;;;;;14.60;7.00;;;;;;;7.13;52.45;99736.76;219772;1271;22613;-69
2022/05/18 23:34:46;;;;;;;11.20;6.60;;;;;;;7.01;52.63;99739.81;219797;1270;24096;-69
2022/05/18 23:39:49;;;;;;;15.70;6.70;;;;;;;6.90;52.99;99738.81;220463;1270;24103;-69
2022/05/18 23:45:00;;;;;;;11.30;6.50;;;;;;;6.79;53.09;99741.93;220236;1271;22633;-66
2022/05/18 23:51:29;;;;;;;11.00;6.30;;;;;;;6.70;53.61;99737.03;221057;1274;24548;-68
2022/05/18 23:55:34;;;;;;;14.80;6.80;;;;;;;6.61;53.94;99739.69;219870;1272;22494;-69
